sensor_id;sensor_type;location;lat;lon;timestamp;temperature;humidity
19970;DHT22;10146;47.754;9.566;2023-09-08T00:00:08;17.80;99.90
19970;DHT22;10146;47.754;9.566;2023-09-08T00:02:34;17.90;99.90
19970;DHT22;10146;47.754;9.566;2023-09-08T00:05:00;17.80;99.90
19970;DHT22;10146;47.754;9.566;2023-09-08T00:07:25;17.80;99.90
19970;DHT22;10146;47.754;9.566;2023-09-08T00:09:51;17.80;99.90
19970;DHT22;10146;47.754;9.566;2023-09-08T00:12:17;17.80;99.90
19970;DHT22;10146;47.754;9.566;2023-09-08T00:14:42;17.70;99.90
19970;DHT22;10146;47.754;9.566;2023-09-08T00:17:08;17.60;99.90
19970;DHT22;10146;47.754;9.566;2023-09-08T00:19:34;17.60;99.90
19970;DHT22;10146;47.754;9.566;2023-09-08T00:21:59;17.60;99.90
19970;DHT22;10146;47.754;9.566;2023-09-08T00:24:26;17.60;99.90
19970;DHT22;10146;47.754;9.566;2023-09-08T00:26:52;17.60;99.90
19970;DHT22;10146;47.754;9.566;2023-09-08T00:29:17;17.50;99.90
19970;DHT22;10146;47.754;9.566;2023-09-08T00:31:43;17.60;99.90
19970;DHT22;10146;47.754;9.566;2023-09-08T00:34:08;17.50;99.90
19970;DHT22;10146;47.754;9.566;2023-09-08T00:36:34;17.50;99.90
19970;DHT22;10146;47.754;9.566;2023-09-08T00:39:00;17.40;99.90
19970;DHT22;10146;47.754;9.566;2023-09-08T00:41:25;17.40;99.90
19970;DHT22;10146;47.754;9.566;2023-09-08T00:43:51;17.50;99.90
19970;DHT22;10146;47.754;9.566;2023-09-08T00:46:17;17.50;99.90
19970;DHT22;10146;47.754;9.566;2023-09-08T00:48:42;17.50;99.90
19970;DHT22;10146;47.754;9.566;2023-09-08T00:51:08;17.50;99.90
19970;DHT22;10146;47.754;9.566;2023-09-08T00:53:35;17.50;99.90
19970;DHT22;10146;47.754;9.566;2023-09-08T00:56:02;17.40;99.90
19970;DHT22;10146;47.754;9.566;2023-09-08T00:58:29;17.40;99.90
19970;DHT22;10146;47.754;9.566;2023-09-08T01:00:54;17.50;99.90
19970;DHT22;10146;47.754;9.566;2023-09-08T01:03:23;17.50;99.90
19970;DHT22;10146;47.754;9.566;2023-09-08T01:05:49;17.50;99.90
19970;DHT22;10146;47.754;9.566;2023-09-08T01:08:15;17.50;99.90
19970;DHT22;10146;47.754;9.566;2023-09-08T01:10:41;17.40;99.90
19970;DHT22;10146;47.754;9.566;2023-09-08T01:13:07;17.50;99.90
19970;DHT22;10146;47.754;9.566;2023-09-08T01:15:33;17.60;99.90
19970;DHT22;10146;47.754;9.566;2023-09-08T01:17:59;17.60;99.90
19970;DHT22;10146;47.754;9.566;2023-09-08T01:26:10;17.30;99.90
19970;DHT22;10146;47.754;9.566;2023-09-08T01:28:41;17.30;99.90
19970;DHT22;10146;47.754;9.566;2023-09-08T01:31:07;17.20;99.90
19970;DHT22;10146;47.754;9.566;2023-09-08T01:33:33;17.20;99.90
19970;DHT22;10146;47.754;9.566;2023-09-08T01:35:59;17.20;99.90
19970;DHT22;10146;47.754;9.566;2023-09-08T01:38:25;17.10;99.90
19970;DHT22;10146;47.754;9.566;2023-09-08T01:40:51;17.00;99.90
19970;DHT22;10146;47.754;9.566;2023-09-08T01:43:16;17.00;99.90
19970;DHT22;10146;47.754;9.566;2023-09-08T01:45:42;17.00;99.90
19970;DHT22;10146;47.754;9.566;2023-09-08T01:48:07;16.90;99.90
19970;DHT22;10146;47.754;9.566;2023-09-08T01:50:33;16.90;99.90
19970;DHT22;10146;47.754;9.566;2023-09-08T01:52:58;16.90;99.90
19970;DHT22;10146;47.754;9.566;2023-09-08T01:55:24;16.90;99.90
19970;DHT22;10146;47.754;9.566;2023-09-08T01:57:49;16.90;99.90
19970;DHT22;10146;47.754;9.566;2023-09-08T02:00:16;16.80;99.90
19970;DHT22;10146;47.754;9.566;2023-09-08T02:02:42;16.80;99.90
19970;DHT22;10146;47.754;9.566;2023-09-08T02:05:07;16.80;99.90
19970;DHT22;10146;47.754;9.566;2023-09-08T02:07:34;16.80;99.90
19970;DHT22;10146;47.754;9.566;2023-09-08T02:09:59;16.80;99.90
19970;DHT22;10146;47.754;9.566;2023-09-08T02:12:25;16.70;99.90
19970;DHT22;10146;47.754;9.566;2023-09-08T02:14:51;16.70;99.90
19970;DHT22;10146;47.754;9.566;2023-09-08T02:17:17;16.70;99.90
19970;DHT22;10146;47.754;9.566;2023-09-08T02:19:43;16.80;99.90
19970;DHT22;10146;47.754;9.566;2023-09-08T02:22:09;16.70;99.90
19970;DHT22;10146;47.754;9.566;2023-09-08T02:24:34;16.70;99.90
19970;DHT22;10146;47.754;9.566;2023-09-08T02:27:00;16.80;99.90
19970;DHT22;10146;47.754;9.566;2023-09-08T02:29:25;16.70;99.90
19970;DHT22;10146;47.754;9.566;2023-09-08T02:31:51;16.70;99.90
19970;DHT22;10146;47.754;9.566;2023-09-08T02:34:16;16.70;99.90
19970;DHT22;10146;47.754;9.566;2023-09-08T02:36:43;16.70;99.90
19970;DHT22;10146;47.754;9.566;2023-09-08T02:39:08;16.60;99.90
19970;DHT22;10146;47.754;9.566;2023-09-08T02:41:34;16.60;99.90
19970;DHT22;10146;47.754;9.566;2023-09-08T02:43:59;16.60;99.90
19970;DHT22;10146;47.754;9.566;2023-09-08T02:46:25;16.50;99.90
19970;DHT22;10146;47.754;9.566;2023-09-08T02:48:51;16.50;99.90
19970;DHT22;10146;47.754;9.566;2023-09-08T02:51:18;16.40;99.90
19970;DHT22;10146;47.754;9.566;2023-09-08T02:53:43;16.40;99.90
19970;DHT22;10146;47.754;9.566;2023-09-08T02:56:09;16.50;99.90
19970;DHT22;10146;47.754;9.566;2023-09-08T02:58:35;16.50;99.90
19970;DHT22;10146;47.754;9.566;2023-09-08T03:01:11;16.50;99.90
19970;DHT22;10146;47.754;9.566;2023-09-08T03:03:39;16.50;99.90
19970;DHT22;10146;47.754;9.566;2023-09-08T03:06:04;16.50;99.90
19970;DHT22;10146;47.754;9.566;2023-09-08T03:08:30;16.30;99.90
19970;DHT22;10146;47.754;9.566;2023-09-08T03:10:57;16.20;99.90
19970;DHT22;10146;47.754;9.566;2023-09-08T03:13:22;16.20;99.90
19970;DHT22;10146;47.754;9.566;2023-09-08T03:15:48;16.20;99.90
19970;DHT22;10146;47.754;9.566;2023-09-08T03:18:14;16.10;99.90
19970;DHT22;10146;47.754;9.566;2023-09-08T03:20:39;16.10;99.90
19970;DHT22;10146;47.754;9.566;2023-09-08T03:23:06;16.10;99.90
19970;DHT22;10146;47.754;9.566;2023-09-08T03:25:31;16.10;99.90
19970;DHT22;10146;47.754;9.566;2023-09-08T03:27:57;16.10;99.90
19970;DHT22;10146;47.754;9.566;2023-09-08T03:30:22;16.00;99.90
19970;DHT22;10146;47.754;9.566;2023-09-08T03:32:48;15.90;99.90
19970;DHT22;10146;47.754;9.566;2023-09-08T03:35:13;16.00;99.90
19970;DHT22;10146;47.754;9.566;2023-09-08T03:37:39;16.00;99.90
19970;DHT22;10146;47.754;9.566;2023-09-08T03:40:05;16.00;99.90
19970;DHT22;10146;47.754;9.566;2023-09-08T03:42:32;16.00;99.90
19970;DHT22;10146;47.754;9.566;2023-09-08T03:44:57;15.90;99.90
19970;DHT22;10146;47.754;9.566;2023-09-08T03:47:23;15.90;99.90
19970;DHT22;10146;47.754;9.566;2023-09-08T03:49:48;15.90;99.90
19970;DHT22;10146;47.754;9.566;2023-09-08T03:52:14;15.90;99.90
19970;DHT22;10146;47.754;9.566;2023-09-08T03:54:39;15.80;99.90
19970;DHT22;10146;47.754;9.566;2023-09-08T03:57:05;15.90;99.90
19970;DHT22;10146;47.754;9.566;2023-09-08T03:59:31;15.90;99.90
19970;DHT22;10146;47.754;9.566;2023-09-08T04:01:57;15.80;99.90
19970;DHT22;10146;47.754;9.566;2023-09-08T04:04:22;15.80;99.90
19970;DHT22;10146;47.754;9.566;2023-09-08T04:06:48;15.90;99.90
19970;DHT22;10146;47.754;9.566;2023-09-08T04:09:14;15.90;99.90
19970;DHT22;10146;47.754;9.566;2023-09-08T04:11:39;15.90;99.90
19970;DHT22;10146;47.754;9.566;2023-09-08T04:14:05;15.90;99.90
19970;DHT22;10146;47.754;9.566;2023-09-08T04:16:30;15.90;99.90
19970;DHT22;10146;47.754;9.566;2023-09-08T04:18:56;15.90;99.90
19970;DHT22;10146;47.754;9.566;2023-09-08T04:21:22;15.90;99.90
19970;DHT22;10146;47.754;9.566;2023-09-08T04:23:47;15.90;99.90
19970;DHT22;10146;47.754;9.566;2023-09-08T04:26:13;15.90;99.90
19970;DHT22;10146;47.754;9.566;2023-09-08T04:28:39;15.90;99.90
19970;DHT22;10146;47.754;9.566;2023-09-08T04:31:04;15.80;99.90
19970;DHT22;10146;47.754;9.566;2023-09-08T04:33:30;15.90;99.90
19970;DHT22;10146;47.754;9.566;2023-09-08T04:35:55;15.90;99.90
19970;DHT22;10146;47.754;9.566;2023-09-08T04:38:21;15.90;99.90
19970;DHT22;10146;47.754;9.566;2023-09-08T04:40:47;15.90;99.90
19970;DHT22;10146;47.754;9.566;2023-09-08T04:43:12;15.80;99.90
19970;DHT22;10146;47.754;9.566;2023-09-08T04:45:38;15.90;99.90
19970;DHT22;10146;47.754;9.566;2023-09-08T04:48:04;15.80;99.90
19970;DHT22;10146;47.754;9.566;2023-09-08T04:50:30;15.70;99.90
19970;DHT22;10146;47.754;9.566;2023-09-08T04:52:56;15.70;99.90
19970;DHT22;10146;47.754;9.566;2023-09-08T04:55:21;15.70;99.90
19970;DHT22;10146;47.754;9.566;2023-09-08T04:57:47;15.70;99.90
19970;DHT22;10146;47.754;9.566;2023-09-08T05:00:13;15.60;99.90
19970;DHT22;10146;47.754;9.566;2023-09-08T05:02:39;15.70;99.90
19970;DHT22;10146;47.754;9.566;2023-09-08T05:05:04;15.70;99.90
19970;DHT22;10146;47.754;9.566;2023-09-08T05:07:30;15.70;99.90
19970;DHT22;10146;47.754;9.566;2023-09-08T05:09:55;15.70;99.90
19970;DHT22;10146;47.754;9.566;2023-09-08T05:12:21;15.60;99.90
19970;DHT22;10146;47.754;9.566;2023-09-08T05:14:47;15.60;99.90
19970;DHT22;10146;47.754;9.566;2023-09-08T05:17:12;15.60;99.90
19970;DHT22;10146;47.754;9.566;2023-09-08T05:19:38;15.70;99.90
19970;DHT22;10146;47.754;9.566;2023-09-08T05:22:05;15.70;99.90
19970;DHT22;10146;47.754;9.566;2023-09-08T05:24:32;15.70;99.90
19970;DHT22;10146;47.754;9.566;2023-09-08T05:26:58;15.70;99.90
19970;DHT22;10146;47.754;9.566;2023-09-08T05:29:23;15.80;99.90
19970;DHT22;10146;47.754;9.566;2023-09-08T05:31:49;15.80;99.90
19970;DHT22;10146;47.754;9.566;2023-09-08T05:34:15;15.90;99.90
19970;DHT22;10146;47.754;9.566;2023-09-08T05:36:41;15.90;99.90
19970;DHT22;10146;47.754;9.566;2023-09-08T05:39:08;15.90;99.90
19970;DHT22;10146;47.754;9.566;2023-09-08T05:41:33;16.00;99.90
19970;DHT22;10146;47.754;9.566;2023-09-08T05:44:00;15.90;99.90
19970;DHT22;10146;47.754;9.566;2023-09-08T05:46:26;16.00;99.90
19970;DHT22;10146;47.754;9.566;2023-09-08T05:48:52;16.10;99.90
19970;DHT22;10146;47.754;9.566;2023-09-08T05:51:17;16.20;99.90
19970;DHT22;10146;47.754;9.566;2023-09-08T05:53:43;16.10;99.90
19970;DHT22;10146;47.754;9.566;2023-09-08T05:56:09;16.20;99.90
19970;DHT22;10146;47.754;9.566;2023-09-08T05:58:35;16.30;99.90
19970;DHT22;10146;47.754;9.566;2023-09-08T06:01:01;16.30;99.90
19970;DHT22;10146;47.754;9.566;2023-09-08T06:03:28;16.40;99.90
19970;DHT22;10146;47.754;9.566;2023-09-08T06:05:53;16.50;99.90
19970;DHT22;10146;47.754;9.566;2023-09-08T06:08:19;16.50;99.90
19970;DHT22;10146;47.754;9.566;2023-09-08T06:10:44;16.70;99.90
19970;DHT22;10146;47.754;9.566;2023-09-08T06:13:10;16.70;99.90
19970;DHT22;10146;47.754;9.566;2023-09-08T06:15:36;16.70;99.90
19970;DHT22;10146;47.754;9.566;2023-09-08T06:18:02;16.70;99.90
19970;DHT22;10146;47.754;9.566;2023-09-08T06:20:27;16.80;99.90
19970;DHT22;10146;47.754;9.566;2023-09-08T06:22:53;16.80;99.90
19970;DHT22;10146;47.754;9.566;2023-09-08T06:25:19;16.90;99.90
19970;DHT22;10146;47.754;9.566;2023-09-08T06:27:44;17.00;99.90
19970;DHT22;10146;47.754;9.566;2023-09-08T06:30:10;17.00;99.90
19970;DHT22;10146;47.754;9.566;2023-09-08T06:32:38;17.10;99.90
19970;DHT22;10146;47.754;9.566;2023-09-08T06:35:04;17.20;99.90
19970;DHT22;10146;47.754;9.566;2023-09-08T06:37:35;17.30;99.90
19970;DHT22;10146;47.754;9.566;2023-09-08T06:40:01;17.40;99.90
19970;DHT22;10146;47.754;9.566;2023-09-08T06:42:27;17.50;99.90
19970;DHT22;10146;47.754;9.566;2023-09-08T06:44:52;17.60;99.90
19970;DHT22;10146;47.754;9.566;2023-09-08T06:47:18;17.70;99.90
19970;DHT22;10146;47.754;9.566;2023-09-08T06:49:44;17.70;99.90
19970;DHT22;10146;47.754;9.566;2023-09-08T06:52:09;17.80;99.90
19970;DHT22;10146;47.754;9.566;2023-09-08T06:54:35;17.90;99.90
19970;DHT22;10146;47.754;9.566;2023-09-08T06:57:00;17.90;99.90
19970;DHT22;10146;47.754;9.566;2023-09-08T06:59:26;18.00;99.90
19970;DHT22;10146;47.754;9.566;2023-09-08T07:01:51;18.00;99.90
19970;DHT22;10146;47.754;9.566;2023-09-08T07:04:17;18.10;99.90
19970;DHT22;10146;47.754;9.566;2023-09-08T07:06:43;18.20;99.90
19970;DHT22;10146;47.754;9.566;2023-09-08T07:09:09;18.30;99.90
19970;DHT22;10146;47.754;9.566;2023-09-08T07:11:35;18.40;99.90
19970;DHT22;10146;47.754;9.566;2023-09-08T07:14:01;18.40;99.90
19970;DHT22;10146;47.754;9.566;2023-09-08T07:16:27;18.50;99.90
19970;DHT22;10146;47.754;9.566;2023-09-08T07:18:53;18.50;99.90
19970;DHT22;10146;47.754;9.566;2023-09-08T07:21:19;18.70;99.90
19970;DHT22;10146;47.754;9.566;2023-09-08T07:23:45;18.70;99.90
19970;DHT22;10146;47.754;9.566;2023-09-08T07:26:10;18.80;99.90
19970;DHT22;10146;47.754;9.566;2023-09-08T07:28:36;18.90;99.90
19970;DHT22;10146;47.754;9.566;2023-09-08T07:31:03;18.90;99.90
19970;DHT22;10146;47.754;9.566;2023-09-08T07:33:28;18.90;99.90
19970;DHT22;10146;47.754;9.566;2023-09-08T07:35:54;19.00;99.90
19970;DHT22;10146;47.754;9.566;2023-09-08T07:38:20;19.10;99.90
19970;DHT22;10146;47.754;9.566;2023-09-08T07:40:45;19.10;99.90
19970;DHT22;10146;47.754;9.566;2023-09-08T07:43:11;19.30;99.90
19970;DHT22;10146;47.754;9.566;2023-09-08T07:45:36;19.30;99.90
19970;DHT22;10146;47.754;9.566;2023-09-08T07:48:02;19.40;99.90
19970;DHT22;10146;47.754;9.566;2023-09-08T07:50:29;19.50;99.90
19970;DHT22;10146;47.754;9.566;2023-09-08T07:52:56;19.60;99.90
19970;DHT22;10146;47.754;9.566;2023-09-08T07:55:23;19.60;99.90
19970;DHT22;10146;47.754;9.566;2023-09-08T07:57:49;19.70;99.90
19970;DHT22;10146;47.754;9.566;2023-09-08T08:00:16;19.80;99.90
19970;DHT22;10146;47.754;9.566;2023-09-08T08:02:46;19.90;99.90
19970;DHT22;10146;47.754;9.566;2023-09-08T08:05:12;20.00;99.90
19970;DHT22;10146;47.754;9.566;2023-09-08T08:07:38;20.10;99.90
19970;DHT22;10146;47.754;9.566;2023-09-08T08:10:08;20.20;99.90
19970;DHT22;10146;47.754;9.566;2023-09-08T08:12:35;20.30;99.90
19970;DHT22;10146;47.754;9.566;2023-09-08T08:15:01;20.40;99.90
19970;DHT22;10146;47.754;9.566;2023-09-08T08:17:26;20.40;99.90
19970;DHT22;10146;47.754;9.566;2023-09-08T08:19:54;20.60;99.90
19970;DHT22;10146;47.754;9.566;2023-09-08T08:22:20;20.70;99.90
19970;DHT22;10146;47.754;9.566;2023-09-08T08:24:45;20.80;99.90
19970;DHT22;10146;47.754;9.566;2023-09-08T08:27:11;20.90;99.90
19970;DHT22;10146;47.754;9.566;2023-09-08T08:29:38;20.90;99.90
19970;DHT22;10146;47.754;9.566;2023-09-08T08:32:04;20.90;99.90
19970;DHT22;10146;47.754;9.566;2023-09-08T08:34:29;21.10;99.90
19970;DHT22;10146;47.754;9.566;2023-09-08T08:36:55;21.10;99.90
19970;DHT22;10146;47.754;9.566;2023-09-08T08:39:21;21.20;99.90
19970;DHT22;10146;47.754;9.566;2023-09-08T08:41:46;21.30;99.90
19970;DHT22;10146;47.754;9.566;2023-09-08T08:44:13;21.40;99.90
19970;DHT22;10146;47.754;9.566;2023-09-08T08:46:41;21.50;99.90
19970;DHT22;10146;47.754;9.566;2023-09-08T08:49:07;21.50;99.90
19970;DHT22;10146;47.754;9.566;2023-09-08T08:51:35;21.60;99.90
19970;DHT22;10146;47.754;9.566;2023-09-08T08:54:01;21.80;99.90
19970;DHT22;10146;47.754;9.566;2023-09-08T08:56:33;21.90;99.90
19970;DHT22;10146;47.754;9.566;2023-09-08T08:59:01;22.00;99.90
19970;DHT22;10146;47.754;9.566;2023-09-08T09:01:28;22.10;99.90
19970;DHT22;10146;47.754;9.566;2023-09-08T09:03:55;22.20;99.90
19970;DHT22;10146;47.754;9.566;2023-09-08T09:06:21;22.30;99.90
19970;DHT22;10146;47.754;9.566;2023-09-08T09:08:47;22.40;99.90
19970;DHT22;10146;47.754;9.566;2023-09-08T09:11:13;22.60;99.90
19970;DHT22;10146;47.754;9.566;2023-09-08T09:13:38;22.70;99.90
19970;DHT22;10146;47.754;9.566;2023-09-08T09:16:04;22.80;99.90
19970;DHT22;10146;47.754;9.566;2023-09-08T09:18:33;22.80;99.90
19970;DHT22;10146;47.754;9.566;2023-09-08T09:21:00;22.90;99.90
19970;DHT22;10146;47.754;9.566;2023-09-08T09:23:31;22.90;99.90
19970;DHT22;10146;47.754;9.566;2023-09-08T09:25:57;23.00;99.90
19970;DHT22;10146;47.754;9.566;2023-09-08T09:28:24;23.10;99.90
19970;DHT22;10146;47.754;9.566;2023-09-08T09:30:51;23.20;99.90
19970;DHT22;10146;47.754;9.566;2023-09-08T09:33:17;23.30;99.90
19970;DHT22;10146;47.754;9.566;2023-09-08T09:35:48;23.50;99.90
19970;DHT22;10146;47.754;9.566;2023-09-08T09:38:15;23.60;99.90
19970;DHT22;10146;47.754;9.566;2023-09-08T09:40:42;23.70;99.90
19970;DHT22;10146;47.754;9.566;2023-09-08T09:43:08;23.70;99.90
19970;DHT22;10146;47.754;9.566;2023-09-08T09:45:34;23.80;99.90
19970;DHT22;10146;47.754;9.566;2023-09-08T09:48:05;23.90;99.90
19970;DHT22;10146;47.754;9.566;2023-09-08T09:50:32;23.90;99.90
19970;DHT22;10146;47.754;9.566;2023-09-08T09:53:03;23.90;99.90
19970;DHT22;10146;47.754;9.566;2023-09-08T09:55:32;24.00;99.90
19970;DHT22;10146;47.754;9.566;2023-09-08T09:57:59;24.10;99.90
19970;DHT22;10146;47.754;9.566;2023-09-08T10:00:28;24.20;99.90
19970;DHT22;10146;47.754;9.566;2023-09-08T10:02:54;24.40;99.90
19970;DHT22;10146;47.754;9.566;2023-09-08T10:05:20;24.50;99.90
19970;DHT22;10146;47.754;9.566;2023-09-08T10:07:47;24.60;99.90
19970;DHT22;10146;47.754;9.566;2023-09-08T10:10:14;24.70;99.90
19970;DHT22;10146;47.754;9.566;2023-09-08T10:12:43;24.70;99.90
19970;DHT22;10146;47.754;9.566;2023-09-08T10:15:09;24.80;99.90
19970;DHT22;10146;47.754;9.566;2023-09-08T10:17:36;24.80;99.90
19970;DHT22;10146;47.754;9.566;2023-09-08T10:20:03;24.90;99.90
19970;DHT22;10146;47.754;9.566;2023-09-08T10:22:38;24.90;99.90
19970;DHT22;10146;47.754;9.566;2023-09-08T10:25:06;25.00;99.90
19970;DHT22;10146;47.754;9.566;2023-09-08T10:27:33;25.00;99.90
19970;DHT22;10146;47.754;9.566;2023-09-08T10:30:02;25.00;99.90
19970;DHT22;10146;47.754;9.566;2023-09-08T10:32:30;25.10;99.90
19970;DHT22;10146;47.754;9.566;2023-09-08T10:34:56;25.20;99.90
19970;DHT22;10146;47.754;9.566;2023-09-08T10:37:26;25.20;99.90
19970;DHT22;10146;47.754;9.566;2023-09-08T10:43:08;25.60;99.90
19970;DHT22;10146;47.754;9.566;2023-09-08T10:45:34;25.60;99.90
19970;DHT22;10146;47.754;9.566;2023-09-08T10:48:00;25.70;99.90
19970;DHT22;10146;47.754;9.566;2023-09-08T10:50:28;25.70;99.90
19970;DHT22;10146;47.754;9.566;2023-09-08T10:53:16;25.80;99.90
19970;DHT22;10146;47.754;9.566;2023-09-08T10:55:44;25.90;99.90
19970;DHT22;10146;47.754;9.566;2023-09-08T10:58:18;26.00;99.90
19970;DHT22;10146;47.754;9.566;2023-09-08T11:00:51;26.10;99.90
19970;DHT22;10146;47.754;9.566;2023-09-08T11:06:08;26.20;99.90
19970;DHT22;10146;47.754;9.566;2023-09-08T11:08:37;26.10;99.90
19970;DHT22;10146;47.754;9.566;2023-09-08T11:11:03;26.20;99.90
19970;DHT22;10146;47.754;9.566;2023-09-08T11:13:28;26.40;99.90
19970;DHT22;10146;47.754;9.566;2023-09-08T11:15:55;26.50;99.90
19970;DHT22;10146;47.754;9.566;2023-09-08T11:18:27;26.50;99.90
19970;DHT22;10146;47.754;9.566;2023-09-08T11:20:53;26.70;99.90
19970;DHT22;10146;47.754;9.566;2023-09-08T11:23:20;26.80;99.90
19970;DHT22;10146;47.754;9.566;2023-09-08T11:25:47;26.90;99.90
19970;DHT22;10146;47.754;9.566;2023-09-08T11:28:13;26.80;99.90
19970;DHT22;10146;47.754;9.566;2023-09-08T11:30:39;26.90;99.90
19970;DHT22;10146;47.754;9.566;2023-09-08T11:33:17;26.90;99.90
19970;DHT22;10146;47.754;9.566;2023-09-08T11:35:46;26.80;99.90
19970;DHT22;10146;47.754;9.566;2023-09-08T11:38:12;26.90;99.90
19970;DHT22;10146;47.754;9.566;2023-09-08T11:40:38;27.00;99.90
19970;DHT22;10146;47.754;9.566;2023-09-08T11:43:07;27.20;99.90
19970;DHT22;10146;47.754;9.566;2023-09-08T11:45:36;27.10;99.90
19970;DHT22;10146;47.754;9.566;2023-09-08T11:48:03;27.10;99.90
19970;DHT22;10146;47.754;9.566;2023-09-08T11:50:30;27.10;99.90
19970;DHT22;10146;47.754;9.566;2023-09-08T11:52:56;27.10;99.90
19970;DHT22;10146;47.754;9.566;2023-09-08T11:55:24;27.30;99.90
19970;DHT22;10146;47.754;9.566;2023-09-08T11:57:53;27.40;99.90
19970;DHT22;10146;47.754;9.566;2023-09-08T12:00:27;27.50;99.90
19970;DHT22;10146;47.754;9.566;2023-09-08T12:02:53;27.60;99.90
19970;DHT22;10146;47.754;9.566;2023-09-08T12:05:26;27.80;99.90
19970;DHT22;10146;47.754;9.566;2023-09-08T12:07:54;27.80;99.90
19970;DHT22;10146;47.754;9.566;2023-09-08T12:10:20;28.00;99.90
19970;DHT22;10146;47.754;9.566;2023-09-08T12:12:49;28.20;99.90
19970;DHT22;10146;47.754;9.566;2023-09-08T12:15:35;28.50;99.90
19970;DHT22;10146;47.754;9.566;2023-09-08T12:18:02;28.60;99.90
19970;DHT22;10146;47.754;9.566;2023-09-08T12:20:29;28.60;99.90
19970;DHT22;10146;47.754;9.566;2023-09-08T12:23:02;28.60;99.90
19970;DHT22;10146;47.754;9.566;2023-09-08T12:25:28;28.70;99.90
19970;DHT22;10146;47.754;9.566;2023-09-08T12:27:56;28.80;99.90
19970;DHT22;10146;47.754;9.566;2023-09-08T12:30:23;28.70;99.90
19970;DHT22;10146;47.754;9.566;2023-09-08T12:32:56;28.70;99.90
19970;DHT22;10146;47.754;9.566;2023-09-08T12:35:23;28.80;99.90
19970;DHT22;10146;47.754;9.566;2023-09-08T12:38:05;28.90;99.90
19970;DHT22;10146;47.754;9.566;2023-09-08T12:40:34;28.90;99.90
19970;DHT22;10146;47.754;9.566;2023-09-08T12:43:00;29.20;99.90
19970;DHT22;10146;47.754;9.566;2023-09-08T12:45:27;29.20;99.90
19970;DHT22;10146;47.754;9.566;2023-09-08T12:47:53;29.10;99.90
19970;DHT22;10146;47.754;9.566;2023-09-08T12:50:23;29.00;99.90
19970;DHT22;10146;47.754;9.566;2023-09-08T12:52:49;29.10;99.90
19970;DHT22;10146;47.754;9.566;2023-09-08T12:55:15;29.30;99.90
19970;DHT22;10146;47.754;9.566;2023-09-08T12:57:40;29.50;99.90
19970;DHT22;10146;47.754;9.566;2023-09-08T13:00:06;29.60;99.90
19970;DHT22;10146;47.754;9.566;2023-09-08T13:02:33;29.80;99.90
19970;DHT22;10146;47.754;9.566;2023-09-08T13:04:58;29.90;99.90
19970;DHT22;10146;47.754;9.566;2023-09-08T13:07:24;29.80;99.90
19970;DHT22;10146;47.754;9.566;2023-09-08T13:09:50;29.80;99.90
19970;DHT22;10146;47.754;9.566;2023-09-08T13:12:16;29.90;99.90
19970;DHT22;10146;47.754;9.566;2023-09-08T13:14:41;30.00;99.90
19970;DHT22;10146;47.754;9.566;2023-09-08T13:17:10;30.10;99.90
19970;DHT22;10146;47.754;9.566;2023-09-08T13:19:35;30.20;99.90
19970;DHT22;10146;47.754;9.566;2023-09-08T13:22:03;30.20;99.90
19970;DHT22;10146;47.754;9.566;2023-09-08T13:24:29;30.30;99.90
19970;DHT22;10146;47.754;9.566;2023-09-08T13:26:54;30.40;99.90
19970;DHT22;10146;47.754;9.566;2023-09-08T13:29:20;30.60;99.90
19970;DHT22;10146;47.754;9.566;2023-09-08T13:31:46;30.60;99.90
19970;DHT22;10146;47.754;9.566;2023-09-08T13:34:11;30.70;99.90
19970;DHT22;10146;47.754;9.566;2023-09-08T13:36:37;30.90;99.90
19970;DHT22;10146;47.754;9.566;2023-09-08T13:39:02;31.10;99.90
19970;DHT22;10146;47.754;9.566;2023-09-08T13:41:59;31.30;99.90
19970;DHT22;10146;47.754;9.566;2023-09-08T13:44:24;31.40;99.90
19970;DHT22;10146;47.754;9.566;2023-09-08T13:46:51;31.60;99.90
19970;DHT22;10146;47.754;9.566;2023-09-08T13:49:17;31.40;99.90
19970;DHT22;10146;47.754;9.566;2023-09-08T13:51:43;31.30;99.90
19970;DHT22;10146;47.754;9.566;2023-09-08T13:54:09;31.40;99.90
19970;DHT22;10146;47.754;9.566;2023-09-08T13:56:37;31.40;99.90
19970;DHT22;10146;47.754;9.566;2023-09-08T13:59:03;31.40;99.50
19970;DHT22;10146;47.754;9.566;2023-09-08T14:01:29;31.60;99.40
19970;DHT22;10146;47.754;9.566;2023-09-08T14:03:57;31.90;99.30
19970;DHT22;10146;47.754;9.566;2023-09-08T14:06:23;32.20;97.70
19970;DHT22;10146;47.754;9.566;2023-09-08T14:08:49;32.20;97.40
19970;DHT22;10146;47.754;9.566;2023-09-08T14:11:15;32.30;97.10
19970;DHT22;10146;47.754;9.566;2023-09-08T14:13:41;32.20;97.40
19970;DHT22;10146;47.754;9.566;2023-09-08T14:16:06;32.20;96.60
19970;DHT22;10146;47.754;9.566;2023-09-08T14:18:32;32.30;97.10
19970;DHT22;10146;47.754;9.566;2023-09-08T14:20:58;32.40;96.40
19970;DHT22;10146;47.754;9.566;2023-09-08T14:23:24;32.50;96.60
19970;DHT22;10146;47.754;9.566;2023-09-08T14:25:49;32.40;94.60
19970;DHT22;10146;47.754;9.566;2023-09-08T14:28:15;32.40;95.90
19970;DHT22;10146;47.754;9.566;2023-09-08T14:30:40;32.40;95.10
19970;DHT22;10146;47.754;9.566;2023-09-08T14:33:07;32.40;94.70
19970;DHT22;10146;47.754;9.566;2023-09-08T14:35:33;32.70;93.90
19970;DHT22;10146;47.754;9.566;2023-09-08T14:37:59;33.00;93.10
19970;DHT22;10146;47.754;9.566;2023-09-08T14:40:24;33.00;92.60
19970;DHT22;10146;47.754;9.566;2023-09-08T14:42:50;32.90;93.30
19970;DHT22;10146;47.754;9.566;2023-09-08T14:45:15;32.70;93.60
19970;DHT22;10146;47.754;9.566;2023-09-08T14:47:41;32.70;94.40
19970;DHT22;10146;47.754;9.566;2023-09-08T14:50:07;32.80;93.50
19970;DHT22;10146;47.754;9.566;2023-09-08T14:52:33;33.20;93.20
19970;DHT22;10146;47.754;9.566;2023-09-08T14:54:59;33.30;93.10
19970;DHT22;10146;47.754;9.566;2023-09-08T14:57:24;33.60;92.90
19970;DHT22;10146;47.754;9.566;2023-09-08T14:59:51;34.00;92.50
19970;DHT22;10146;47.754;9.566;2023-09-08T15:02:19;34.70;92.40
19970;DHT22;10146;47.754;9.566;2023-09-08T15:04:45;35.20;90.80
19970;DHT22;10146;47.754;9.566;2023-09-08T15:07:10;35.50;90.40
19970;DHT22;10146;47.754;9.566;2023-09-08T15:09:36;36.00;89.60
19970;DHT22;10146;47.754;9.566;2023-09-08T15:12:02;36.30;88.70
19970;DHT22;10146;47.754;9.566;2023-09-08T15:14:27;36.60;85.20
19970;DHT22;10146;47.754;9.566;2023-09-08T15:16:53;36.80;84.40
19970;DHT22;10146;47.754;9.566;2023-09-08T15:19:18;37.30;80.80
19970;DHT22;10146;47.754;9.566;2023-09-08T15:21:44;37.40;80.30
19970;DHT22;10146;47.754;9.566;2023-09-08T15:24:10;37.60;77.70
19970;DHT22;10146;47.754;9.566;2023-09-08T15:26:35;37.60;73.90
19970;DHT22;10146;47.754;9.566;2023-09-08T15:29:01;37.50;75.20
19970;DHT22;10146;47.754;9.566;2023-09-08T15:31:26;37.50;76.10
19970;DHT22;10146;47.754;9.566;2023-09-08T15:33:53;37.50;76.80
19970;DHT22;10146;47.754;9.566;2023-09-08T15:36:19;37.60;77.90